sensor_id;sensor_type;location;lat;lon;timestamp;temperature;humidity
1806;DHT22;901;48.142;11.516;2023-05-20T00:00:44;13.00;99.90
1806;DHT22;901;48.142;11.516;2023-05-20T00:03:11;12.90;99.90
1806;DHT22;901;48.142;11.516;2023-05-20T00:05:37;12.90;99.90
1806;DHT22;901;48.142;11.516;2023-05-20T00:08:04;12.90;99.90
1806;DHT22;901;48.142;11.516;2023-05-20T00:10:33;12.90;99.90
1806;DHT22;901;48.142;11.516;2023-05-20T00:13:00;12.90;99.90
1806;DHT22;901;48.142;11.516;2023-05-20T00:15:27;12.80;99.90
1806;DHT22;901;48.142;11.516;2023-05-20T00:17:55;12.90;99.90
1806;DHT22;901;48.142;11.516;2023-05-20T00:20:22;12.80;99.90
1806;DHT22;901;48.142;11.516;2023-05-20T00:22:49;12.80;99.90
1806;DHT22;901;48.142;11.516;2023-05-20T00:25:16;12.90;99.90
1806;DHT22;901;48.142;11.516;2023-05-20T00:27:43;12.90;99.90
1806;DHT22;901;48.142;11.516;2023-05-20T00:30:11;13.00;99.90
1806;DHT22;901;48.142;11.516;2023-05-20T00:32:38;12.90;99.90
1806;DHT22;901;48.142;11.516;2023-05-20T00:35:07;12.80;99.90
1806;DHT22;901;48.142;11.516;2023-05-20T00:37:35;12.90;99.90
1806;DHT22;901;48.142;11.516;2023-05-20T00:40:02;12.90;99.90
1806;DHT22;901;48.142;11.516;2023-05-20T00:42:30;12.90;99.90
1806;DHT22;901;48.142;11.516;2023-05-20T00:44:56;12.90;99.90
1806;DHT22;901;48.142;11.516;2023-05-20T00:47:26;13.00;99.90
1806;DHT22;901;48.142;11.516;2023-05-20T00:49:54;13.00;99.90
1806;DHT22;901;48.142;11.516;2023-05-20T00:52:23;13.00;99.90
1806;DHT22;901;48.142;11.516;2023-05-20T00:54:51;12.90;99.90
1806;DHT22;901;48.142;11.516;2023-05-20T00:57:18;12.90;99.90
1806;DHT22;901;48.142;11.516;2023-05-20T00:59:46;12.80;99.90
1806;DHT22;901;48.142;11.516;2023-05-20T01:02:13;12.80;99.90
1806;DHT22;901;48.142;11.516;2023-05-20T01:04:40;12.80;99.90
1806;DHT22;901;48.142;11.516;2023-05-20T01:07:11;12.90;99.90
1806;DHT22;901;48.142;11.516;2023-05-20T01:09:39;13.00;99.90
1806;DHT22;901;48.142;11.516;2023-05-20T01:12:11;12.80;99.90
1806;DHT22;901;48.142;11.516;2023-05-20T01:14:45;12.80;99.90
1806;DHT22;901;48.142;11.516;2023-05-20T01:17:14;12.70;99.90
1806;DHT22;901;48.142;11.516;2023-05-20T01:19:44;12.80;99.90
1806;DHT22;901;48.142;11.516;2023-05-20T01:22:12;12.70;99.90
1806;DHT22;901;48.142;11.516;2023-05-20T01:24:42;12.70;99.90
1806;DHT22;901;48.142;11.516;2023-05-20T01:27:10;12.70;99.90
1806;DHT22;901;48.142;11.516;2023-05-20T01:29:38;13.20;99.90
1806;DHT22;901;48.142;11.516;2023-05-20T01:32:08;12.60;99.90
1806;DHT22;901;48.142;11.516;2023-05-20T01:34:37;12.60;99.90
1806;DHT22;901;48.142;11.516;2023-05-20T01:37:05;12.60;99.90
1806;DHT22;901;48.142;11.516;2023-05-20T01:39:35;12.60;99.90
1806;DHT22;901;48.142;11.516;2023-05-20T01:42:04;12.50;99.90
1806;DHT22;901;48.142;11.516;2023-05-20T01:44:33;12.50;99.90
1806;DHT22;901;48.142;11.516;2023-05-20T01:47:00;12.60;99.90
1806;DHT22;901;48.142;11.516;2023-05-20T01:49:27;12.50;99.90
1806;DHT22;901;48.142;11.516;2023-05-20T01:51:54;12.50;99.90
1806;DHT22;901;48.142;11.516;2023-05-20T01:54:21;12.60;99.90
1806;DHT22;901;48.142;11.516;2023-05-20T01:56:49;12.60;99.90
1806;DHT22;901;48.142;11.516;2023-05-20T01:59:17;12.60;99.90
1806;DHT22;901;48.142;11.516;2023-05-20T02:01:44;12.60;99.90
1806;DHT22;901;48.142;11.516;2023-05-20T02:04:11;12.70;99.90
1806;DHT22;901;48.142;11.516;2023-05-20T02:06:38;12.60;99.90
1806;DHT22;901;48.142;11.516;2023-05-20T02:09:05;12.70;99.90
1806;DHT22;901;48.142;11.516;2023-05-20T02:11:31;12.60;99.90
1806;DHT22;901;48.142;11.516;2023-05-20T02:13:58;12.70;99.90
1806;DHT22;901;48.142;11.516;2023-05-20T02:16:26;12.70;99.90
1806;DHT22;901;48.142;11.516;2023-05-20T02:18:53;12.70;99.90
1806;DHT22;901;48.142;11.516;2023-05-20T02:21:20;12.70;99.90
1806;DHT22;901;48.142;11.516;2023-05-20T02:23:47;12.70;99.90
1806;DHT22;901;48.142;11.516;2023-05-20T02:26:14;12.50;99.90
1806;DHT22;901;48.142;11.516;2023-05-20T02:28:41;12.50;99.90
1806;DHT22;901;48.142;11.516;2023-05-20T02:31:11;12.50;99.90
1806;DHT22;901;48.142;11.516;2023-05-20T02:33:39;12.50;99.90
1806;DHT22;901;48.142;11.516;2023-05-20T02:36:06;12.60;99.90
1806;DHT22;901;48.142;11.516;2023-05-20T02:38:33;12.60;99.90
1806;DHT22;901;48.142;11.516;2023-05-20T02:41:00;12.60;99.90
1806;DHT22;901;48.142;11.516;2023-05-20T02:43:28;12.60;99.90
1806;DHT22;901;48.142;11.516;2023-05-20T02:45:55;12.50;99.90
1806;DHT22;901;48.142;11.516;2023-05-20T02:48:22;12.50;99.90
1806;DHT22;901;48.142;11.516;2023-05-20T02:50:50;12.40;99.90
1806;DHT22;901;48.142;11.516;2023-05-20T02:53:17;12.50;99.90
1806;DHT22;901;48.142;11.516;2023-05-20T02:55:45;12.60;99.90
1806;DHT22;901;48.142;11.516;2023-05-20T02:58:13;12.50;99.90
1806;DHT22;901;48.142;11.516;2023-05-20T03:00:40;12.50;99.90
1806;DHT22;901;48.142;11.516;2023-05-20T03:03:07;12.40;99.90
1806;DHT22;901;48.142;11.516;2023-05-20T03:05:34;12.40;99.90
1806;DHT22;901;48.142;11.516;2023-05-20T03:08:07;12.40;99.90
1806;DHT22;901;48.142;11.516;2023-05-20T03:10:34;12.50;99.90
1806;DHT22;901;48.142;11.516;2023-05-20T03:13:03;12.40;99.90
1806;DHT22;901;48.142;11.516;2023-05-20T03:15:33;12.30;99.90
1806;DHT22;901;48.142;11.516;2023-05-20T03:17:59;12.40;99.90
1806;DHT22;901;48.142;11.516;2023-05-20T03:20:26;12.40;99.90
1806;DHT22;901;48.142;11.516;2023-05-20T03:22:54;12.40;99.90
1806;DHT22;901;48.142;11.516;2023-05-20T03:25:23;12.40;99.90
1806;DHT22;901;48.142;11.516;2023-05-20T03:27:50;12.40;99.90
1806;DHT22;901;48.142;11.516;2023-05-20T03:30:17;12.50;99.90
1806;DHT22;901;48.142;11.516;2023-05-20T03:32:44;12.40;99.90
1806;DHT22;901;48.142;11.516;2023-05-20T03:35:11;12.50;99.90
1806;DHT22;901;48.142;11.516;2023-05-20T03:37:38;12.50;99.90
1806;DHT22;901;48.142;11.516;2023-05-20T03:40:06;12.40;99.90
1806;DHT22;901;48.142;11.516;2023-05-20T03:42:36;12.50;99.90
1806;DHT22;901;48.142;11.516;2023-05-20T03:45:04;12.40;99.90
1806;DHT22;901;48.142;11.516;2023-05-20T03:47:31;12.40;99.90
1806;DHT22;901;48.142;11.516;2023-05-20T03:49:57;12.50;99.90
1806;DHT22;901;48.142;11.516;2023-05-20T03:52:24;12.50;99.90
1806;DHT22;901;48.142;11.516;2023-05-20T03:54:52;12.50;99.90
1806;DHT22;901;48.142;11.516;2023-05-20T03:57:19;12.50;99.90
1806;DHT22;901;48.142;11.516;2023-05-20T03:59:47;12.60;99.90
1806;DHT22;901;48.142;11.516;2023-05-20T04:02:14;12.60;99.90
1806;DHT22;901;48.142;11.516;2023-05-20T04:04:41;12.50;99.90
1806;DHT22;901;48.142;11.516;2023-05-20T04:07:07;12.40;99.90
1806;DHT22;901;48.142;11.516;2023-05-20T04:09:34;12.30;99.90
1806;DHT22;901;48.142;11.516;2023-05-20T04:12:01;12.40;99.90
1806;DHT22;901;48.142;11.516;2023-05-20T04:14:28;12.30;99.90
1806;DHT22;901;48.142;11.516;2023-05-20T04:16:57;12.40;99.90
1806;DHT22;901;48.142;11.516;2023-05-20T04:19:23;12.40;99.90
1806;DHT22;901;48.142;11.516;2023-05-20T04:21:52;12.40;99.90
1806;DHT22;901;48.142;11.516;2023-05-20T04:24:19;12.40;99.90
1806;DHT22;901;48.142;11.516;2023-05-20T04:26:49;12.40;99.90
1806;DHT22;901;48.142;11.516;2023-05-20T04:29:17;12.40;99.90
1806;DHT22;901;48.142;11.516;2023-05-20T04:31:44;12.40;99.90
1806;DHT22;901;48.142;11.516;2023-05-20T04:34:13;12.40;99.90
1806;DHT22;901;48.142;11.516;2023-05-20T04:36:44;12.50;99.90
1806;DHT22;901;48.142;11.516;2023-05-20T04:39:11;12.50;99.90
1806;DHT22;901;48.142;11.516;2023-05-20T04:41:38;12.50;99.90
1806;DHT22;901;48.142;11.516;2023-05-20T04:44:05;12.40;99.90
1806;DHT22;901;48.142;11.516;2023-05-20T04:46:31;12.50;99.90
1806;DHT22;901;48.142;11.516;2023-05-20T04:48:58;12.50;99.90
1806;DHT22;901;48.142;11.516;2023-05-20T04:51:27;12.40;99.90
1806;DHT22;901;48.142;11.516;2023-05-20T04:53:54;12.40;99.90
1806;DHT22;901;48.142;11.516;2023-05-20T04:56:21;12.60;99.90
1806;DHT22;901;48.142;11.516;2023-05-20T04:58:48;12.50;99.90
1806;DHT22;901;48.142;11.516;2023-05-20T05:01:14;12.50;99.90
1806;DHT22;901;48.142;11.516;2023-05-20T05:03:41;12.60;99.90
1806;DHT22;901;48.142;11.516;2023-05-20T05:06:08;12.50;99.90
1806;DHT22;901;48.142;11.516;2023-05-20T05:08:36;12.50;99.90
1806;DHT22;901;48.142;11.516;2023-05-20T05:11:04;12.50;99.90
1806;DHT22;901;48.142;11.516;2023-05-20T05:13:31;12.50;99.90
1806;DHT22;901;48.142;11.516;2023-05-20T05:15:58;12.40;99.90
1806;DHT22;901;48.142;11.516;2023-05-20T05:18:25;12.40;99.90
1806;DHT22;901;48.142;11.516;2023-05-20T05:20:58;11.80;99.90
1806;DHT22;901;48.142;11.516;2023-05-20T05:23:25;12.50;99.90
1806;DHT22;901;48.142;11.516;2023-05-20T05:25:54;12.50;99.90
1806;DHT22;901;48.142;11.516;2023-05-20T05:28:21;12.60;99.90
1806;DHT22;901;48.142;11.516;2023-05-20T05:30:47;12.50;99.90
1806;DHT22;901;48.142;11.516;2023-05-20T05:33:14;12.60;99.90
1806;DHT22;901;48.142;11.516;2023-05-20T05:35:42;12.70;99.90
1806;DHT22;901;48.142;11.516;2023-05-20T05:38:08;12.80;99.90
1806;DHT22;901;48.142;11.516;2023-05-20T05:40:35;12.80;99.90
1806;DHT22;901;48.142;11.516;2023-05-20T05:43:04;12.90;99.90
1806;DHT22;901;48.142;11.516;2023-05-20T05:45:31;12.80;99.90
1806;DHT22;901;48.142;11.516;2023-05-20T05:47:57;12.90;99.90
1806;DHT22;901;48.142;11.516;2023-05-20T05:50:24;12.90;99.90
1806;DHT22;901;48.142;11.516;2023-05-20T05:52:51;12.90;99.90
1806;DHT22;901;48.142;11.516;2023-05-20T05:55:18;13.00;99.90
1806;DHT22;901;48.142;11.516;2023-05-20T05:57:45;13.00;99.90
1806;DHT22;901;48.142;11.516;2023-05-20T06:00:14;13.00;99.90
1806;DHT22;901;48.142;11.516;2023-05-20T06:02:40;13.10;99.90
1806;DHT22;901;48.142;11.516;2023-05-20T06:05:08;13.10;99.90
1806;DHT22;901;48.142;11.516;2023-05-20T06:07:35;13.10;99.90
1806;DHT22;901;48.142;11.516;2023-05-20T06:10:02;13.20;99.90
1806;DHT22;901;48.142;11.516;2023-05-20T06:12:29;13.30;99.90
1806;DHT22;901;48.142;11.516;2023-05-20T06:14:56;13.40;99.90
1806;DHT22;901;48.142;11.516;2023-05-20T06:17:24;13.50;99.90
1806;DHT22;901;48.142;11.516;2023-05-20T06:19:51;13.50;99.90
1806;DHT22;901;48.142;11.516;2023-05-20T06:22:18;13.50;99.90
1806;DHT22;901;48.142;11.516;2023-05-20T06:24:45;13.40;99.90
1806;DHT22;901;48.142;11.516;2023-05-20T06:27:11;13.40;99.90
1806;DHT22;901;48.142;11.516;2023-05-20T06:29:38;13.40;99.90
1806;DHT22;901;48.142;11.516;2023-05-20T06:32:05;13.60;99.90
1806;DHT22;901;48.142;11.516;2023-05-20T06:34:34;13.90;99.90
1806;DHT22;901;48.142;11.516;2023-05-20T06:37:01;14.30;99.90
1806;DHT22;901;48.142;11.516;2023-05-20T06:39:27;14.50;99.90
1806;DHT22;901;48.142;11.516;2023-05-20T06:41:55;14.60;99.90
1806;DHT22;901;48.142;11.516;2023-05-20T06:44:21;14.90;99.90
1806;DHT22;901;48.142;11.516;2023-05-20T06:46:48;15.00;99.90
1806;DHT22;901;48.142;11.516;2023-05-20T06:49:15;14.90;99.90
1806;DHT22;901;48.142;11.516;2023-05-20T06:51:43;14.80;99.90
1806;DHT22;901;48.142;11.516;2023-05-20T06:54:10;14.70;99.90
1806;DHT22;901;48.142;11.516;2023-05-20T06:56:37;14.60;99.90
1806;DHT22;901;48.142;11.516;2023-05-20T06:59:03;14.50;99.90
1806;DHT22;901;48.142;11.516;2023-05-20T07:01:30;14.50;99.90
1806;DHT22;901;48.142;11.516;2023-05-20T07:03:57;14.50;99.90
1806;DHT22;901;48.142;11.516;2023-05-20T07:06:24;14.40;99.90
1806;DHT22;901;48.142;11.516;2023-05-20T07:08:52;14.70;99.90
1806;DHT22;901;48.142;11.516;2023-05-20T07:11:19;15.10;99.90
1806;DHT22;901;48.142;11.516;2023-05-20T07:13:46;15.20;99.90
1806;DHT22;901;48.142;11.516;2023-05-20T07:16:12;15.20;99.90
1806;DHT22;901;48.142;11.516;2023-05-20T07:18:39;15.20;99.90
1806;DHT22;901;48.142;11.516;2023-05-20T07:21:06;15.10;99.90
1806;DHT22;901;48.142;11.516;2023-05-20T07:23:33;15.20;99.90
1806;DHT22;901;48.142;11.516;2023-05-20T07:26:01;15.30;99.90
1806;DHT22;901;48.142;11.516;2023-05-20T07:28:27;15.30;99.90
1806;DHT22;901;48.142;11.516;2023-05-20T07:30:54;15.60;99.90
1806;DHT22;901;48.142;11.516;2023-05-20T07:33:22;15.70;99.90
1806;DHT22;901;48.142;11.516;2023-05-20T07:35:49;15.70;99.90
1806;DHT22;901;48.142;11.516;2023-05-20T07:38:19;15.50;99.90
1806;DHT22;901;48.142;11.516;2023-05-20T07:40:45;15.50;99.90
1806;DHT22;901;48.142;11.516;2023-05-20T07:43:14;15.50;99.90
1806;DHT22;901;48.142;11.516;2023-05-20T07:45:41;15.20;99.90
1806;DHT22;901;48.142;11.516;2023-05-20T07:48:08;15.20;99.90
1806;DHT22;901;48.142;11.516;2023-05-20T07:50:35;15.30;99.90
1806;DHT22;901;48.142;11.516;2023-05-20T07:53:02;15.40;99.90
1806;DHT22;901;48.142;11.516;2023-05-20T07:55:29;15.50;99.90
1806;DHT22;901;48.142;11.516;2023-05-20T07:57:55;15.10;99.90
1806;DHT22;901;48.142;11.516;2023-05-20T08:00:24;15.10;99.90
1806;DHT22;901;48.142;11.516;2023-05-20T08:02:50;15.30;99.90
1806;DHT22;901;48.142;11.516;2023-05-20T08:05:17;15.40;99.90
1806;DHT22;901;48.142;11.516;2023-05-20T08:07:44;15.10;99.90
1806;DHT22;901;48.142;11.516;2023-05-20T08:10:11;15.30;99.90
1806;DHT22;901;48.142;11.516;2023-05-20T08:12:37;15.60;99.90
1806;DHT22;901;48.142;11.516;2023-05-20T08:15:05;15.80;99.90
1806;DHT22;901;48.142;11.516;2023-05-20T08:17:34;15.90;99.90
1806;DHT22;901;48.142;11.516;2023-05-20T08:20:00;16.10;99.90
1806;DHT22;901;48.142;11.516;2023-05-20T08:22:28;16.40;99.90
1806;DHT22;901;48.142;11.516;2023-05-20T08:24:56;16.50;99.90
1806;DHT22;901;48.142;11.516;2023-05-20T08:27:22;17.00;99.90
1806;DHT22;901;48.142;11.516;2023-05-20T08:29:49;17.10;99.90
1806;DHT22;901;48.142;11.516;2023-05-20T08:32:16;17.20;99.90
1806;DHT22;901;48.142;11.516;2023-05-20T08:34:44;17.20;99.90
1806;DHT22;901;48.142;11.516;2023-05-20T08:37:13;17.30;99.90
1806;DHT22;901;48.142;11.516;2023-05-20T08:39:40;17.30;99.90
1806;DHT22;901;48.142;11.516;2023-05-20T08:42:07;17.30;99.90
1806;DHT22;901;48.142;11.516;2023-05-20T08:44:36;17.40;99.90
1806;DHT22;901;48.142;11.516;2023-05-20T08:47:04;17.50;99.90
1806;DHT22;901;48.142;11.516;2023-05-20T08:49:31;17.50;99.90
1806;DHT22;901;48.142;11.516;2023-05-20T08:52:00;17.90;99.90
1806;DHT22;901;48.142;11.516;2023-05-20T08:54:44;18.00;99.90
1806;DHT22;901;48.142;11.516;2023-05-20T08:57:11;17.80;99.90
1806;DHT22;901;48.142;11.516;2023-05-20T08:59:41;18.00;99.90
1806;DHT22;901;48.142;11.516;2023-05-20T09:02:08;17.90;99.90
1806;DHT22;901;48.142;11.516;2023-05-20T09:04:35;18.20;99.90
1806;DHT22;901;48.142;11.516;2023-05-20T09:07:04;18.20;99.90
1806;DHT22;901;48.142;11.516;2023-05-20T09:09:33;18.40;99.90
1806;DHT22;901;48.142;11.516;2023-05-20T09:12:00;18.60;99.90
1806;DHT22;901;48.142;11.516;2023-05-20T09:14:28;18.80;99.90
1806;DHT22;901;48.142;11.516;2023-05-20T09:16:54;18.80;99.90
1806;DHT22;901;48.142;11.516;2023-05-20T09:19:22;18.70;99.90
1806;DHT22;901;48.142;11.516;2023-05-20T09:21:51;18.70;99.90
1806;DHT22;901;48.142;11.516;2023-05-20T09:24:22;19.00;99.90
1806;DHT22;901;48.142;11.516;2023-05-20T09:26:49;19.30;99.90
1806;DHT22;901;48.142;11.516;2023-05-20T09:29:16;19.40;99.90
1806;DHT22;901;48.142;11.516;2023-05-20T09:31:44;19.40;99.90
1806;DHT22;901;48.142;11.516;2023-05-20T09:34:11;19.60;99.90
1806;DHT22;901;48.142;11.516;2023-05-20T09:36:39;19.90;99.90
1806;DHT22;901;48.142;11.516;2023-05-20T09:39:12;20.10;99.90
1806;DHT22;901;48.142;11.516;2023-05-20T09:41:48;20.20;99.90
1806;DHT22;901;48.142;11.516;2023-05-20T09:44:20;20.10;99.90
1806;DHT22;901;48.142;11.516;2023-05-20T09:46:48;20.10;99.90
1806;DHT22;901;48.142;11.516;2023-05-20T09:49:18;20.00;99.90
1806;DHT22;901;48.142;11.516;2023-05-20T09:51:46;19.90;99.90
1806;DHT22;901;48.142;11.516;2023-05-20T09:54:14;19.80;99.90
1806;DHT22;901;48.142;11.516;2023-05-20T09:56:45;19.90;99.90
1806;DHT22;901;48.142;11.516;2023-05-20T09:59:14;20.00;99.90
1806;DHT22;901;48.142;11.516;2023-05-20T10:01:41;20.20;99.90
1806;DHT22;901;48.142;11.516;2023-05-20T10:04:08;20.40;99.90
1806;DHT22;901;48.142;11.516;2023-05-20T10:06:49;20.40;99.90
1806;DHT22;901;48.142;11.516;2023-05-20T10:09:31;20.40;99.90
1806;DHT22;901;48.142;11.516;2023-05-20T10:12:13;20.50;99.90
1806;DHT22;901;48.142;11.516;2023-05-20T10:14:50;20.60;99.90
1806;DHT22;901;48.142;11.516;2023-05-20T10:17:27;20.30;99.90
1806;DHT22;901;48.142;11.516;2023-05-20T10:19:58;20.40;99.90
1806;DHT22;901;48.142;11.516;2023-05-20T10:22:27;20.30;99.90
1806;DHT22;901;48.142;11.516;2023-05-20T10:24:58;20.30;99.90
1806;DHT22;901;48.142;11.516;2023-05-20T10:27:27;20.30;99.90
1806;DHT22;901;48.142;11.516;2023-05-20T10:29:55;20.60;99.90
1806;DHT22;901;48.142;11.516;2023-05-20T10:32:23;20.70;99.90
1806;DHT22;901;48.142;11.516;2023-05-20T10:34:50;20.80;99.90
1806;DHT22;901;48.142;11.516;2023-05-20T10:37:23;20.80;99.90
1806;DHT22;901;48.142;11.516;2023-05-20T10:39:50;21.00;99.90
1806;DHT22;901;48.142;11.516;2023-05-20T10:42:28;21.10;99.90
1806;DHT22;901;48.142;11.516;2023-05-20T10:44:55;21.20;99.90
1806;DHT22;901;48.142;11.516;2023-05-20T10:47:22;21.30;99.90
1806;DHT22;901;48.142;11.516;2023-05-20T10:49:49;21.50;99.90
1806;DHT22;901;48.142;11.516;2023-05-20T10:52:16;21.60;99.90
1806;DHT22;901;48.142;11.516;2023-05-20T10:54:44;21.90;99.90
1806;DHT22;901;48.142;11.516;2023-05-20T10:57:11;21.90;99.90
1806;DHT22;901;48.142;11.516;2023-05-20T10:59:40;22.30;99.90
1806;DHT22;901;48.142;11.516;2023-05-20T11:02:07;22.40;99.90
1806;DHT22;901;48.142;11.516;2023-05-20T11:04:36;22.50;99.90
1806;DHT22;901;48.142;11.516;2023-05-20T11:07:03;22.40;99.90
1806;DHT22;901;48.142;11.516;2023-05-20T11:09:30;22.20;99.90
1806;DHT22;901;48.142;11.516;2023-05-20T11:11:59;22.30;99.90
1806;DHT22;901;48.142;11.516;2023-05-20T11:14:27;22.70;99.90
1806;DHT22;901;48.142;11.516;2023-05-20T11:16:57;22.90;99.90
1806;DHT22;901;48.142;11.516;2023-05-20T11:19:24;22.90;99.90
1806;DHT22;901;48.142;11.516;2023-05-20T11:21:52;23.00;99.90
1806;DHT22;901;48.142;11.516;2023-05-20T11:24:23;23.10;99.90
1806;DHT22;901;48.142;11.516;2023-05-20T11:26:51;23.20;99.90
1806;DHT22;901;48.142;11.516;2023-05-20T11:29:19;23.20;99.90
1806;DHT22;901;48.142;11.516;2023-05-20T11:31:47;23.60;99.90
1806;DHT22;901;48.142;11.516;2023-05-20T11:34:16;23.50;99.90
1806;DHT22;901;48.142;11.516;2023-05-20T11:36:45;23.50;99.90
1806;DHT22;901;48.142;11.516;2023-05-20T11:39:13;23.30;99.90
1806;DHT22;901;48.142;11.516;2023-05-20T11:41:41;23.40;99.90
1806;DHT22;901;48.142;11.516;2023-05-20T11:44:09;23.40;99.90
1806;DHT22;901;48.142;11.516;2023-05-20T11:46:40;23.50;99.90
1806;DHT22;901;48.142;11.516;2023-05-20T11:49:08;23.30;99.90
1806;DHT22;901;48.142;11.516;2023-05-20T11:51:37;23.20;99.90
1806;DHT22;901;48.142;11.516;2023-05-20T11:54:05;23.20;99.90
1806;DHT22;901;48.142;11.516;2023-05-20T11:56:33;23.20;99.90
1806;DHT22;901;48.142;11.516;2023-05-20T11:59:01;23.20;99.90
1806;DHT22;901;48.142;11.516;2023-05-20T12:01:29;23.30;99.90
1806;DHT22;901;48.142;11.516;2023-05-20T12:03:58;23.20;99.90
1806;DHT22;901;48.142;11.516;2023-05-20T12:06:24;23.20;99.90
1806;DHT22;901;48.142;11.516;2023-05-20T12:08:53;23.40;99.90
1806;DHT22;901;48.142;11.516;2023-05-20T12:11:20;23.50;99.90
1806;DHT22;901;48.142;11.516;2023-05-20T12:13:47;23.60;99.90
1806;DHT22;901;48.142;11.516;2023-05-20T12:16:14;23.90;99.90
1806;DHT22;901;48.142;11.516;2023-05-20T12:18:40;23.80;99.90
1806;DHT22;901;48.142;11.516;2023-05-20T12:21:08;23.90;99.90
1806;DHT22;901;48.142;11.516;2023-05-20T12:23:35;23.80;99.90
1806;DHT22;901;48.142;11.516;2023-05-20T12:26:03;23.70;99.90
1806;DHT22;901;48.142;11.516;2023-05-20T12:28:30;23.50;99.90
1806;DHT22;901;48.142;11.516;2023-05-20T12:30:57;23.60;99.90
1806;DHT22;901;48.142;11.516;2023-05-20T12:33:24;23.50;99.90
1806;DHT22;901;48.142;11.516;2023-05-20T12:35:52;23.60;99.90
1806;DHT22;901;48.142;11.516;2023-05-20T12:38:19;23.70;99.90
1806;DHT22;901;48.142;11.516;2023-05-20T12:40:45;23.70;99.90
1806;DHT22;901;48.142;11.516;2023-05-20T12:43:13;23.50;99.90
1806;DHT22;901;48.142;11.516;2023-05-20T12:45:40;23.50;99.90
1806;DHT22;901;48.142;11.516;2023-05-20T12:48:07;23.60;99.90
1806;DHT22;901;48.142;11.516;2023-05-20T12:50:34;23.70;99.90
1806;DHT22;901;48.142;11.516;2023-05-20T12:53:01;23.80;99.90
1806;DHT22;901;48.142;11.516;2023-05-20T12:55:27;24.20;99.90
1806;DHT22;901;48.142;11.516;2023-05-20T12:57:54;24.30;99.90
1806;DHT22;901;48.142;11.516;2023-05-20T13:00:22;24.30;99.90
1806;DHT22;901;48.142;11.516;2023-05-20T13:02:49;24.40;99.90
1806;DHT22;901;48.142;11.516;2023-05-20T13:05:17;24.40;99.90
1806;DHT22;901;48.142;11.516;2023-05-20T13:07:44;24.50;99.90
1806;DHT22;901;48.142;11.516;2023-05-20T13:10:11;24.80;99.90
1806;DHT22;901;48.142;11.516;2023-05-20T13:12:37;24.80;99.90
1806;DHT22;901;48.142;11.516;2023-05-20T13:15:06;24.60;99.90
1806;DHT22;901;48.142;11.516;2023-05-20T13:17:34;24.60;99.90
1806;DHT22;901;48.142;11.516;2023-05-20T13:20:01;24.50;99.90
1806;DHT22;901;48.142;11.516;2023-05-20T13:22:28;24.60;99.90
1806;DHT22;901;48.142;11.516;2023-05-20T13:24:56;24.50;99.90
1806;DHT22;901;48.142;11.516;2023-05-20T13:27:23;24.40;99.90
1806;DHT22;901;48.142;11.516;2023-05-20T13:29:50;24.70;99.90
1806;DHT22;901;48.142;11.516;2023-05-20T13:32:17;24.50;99.90
1806;DHT22;901;48.142;11.516;2023-05-20T13:34:45;24.40;99.90
1806;DHT22;901;48.142;11.516;2023-05-20T13:37:12;24.20;99.90
1806;DHT22;901;48.142;11.516;2023-05-20T13:39:38;23.80;99.90
1806;DHT22;901;48.142;11.516;2023-05-20T13:42:05;23.70;99.90
1806;DHT22;901;48.142;11.516;2023-05-20T13:44:32;23.60;99.90
1806;DHT22;901;48.142;11.516;2023-05-20T13:46:59;23.40;99.90
1806;DHT22;901;48.142;11.516;2023-05-20T13:49:26;23.40;99.90
1806;DHT22;901;48.142;11.516;2023-05-20T13:51:54;23.80;99.90
1806;DHT22;901;48.142;11.516;2023-05-20T13:54:21;23.70;99.90
1806;DHT22;901;48.142;11.516;2023-05-20T13:56:47;23.50;99.90
1806;DHT22;901;48.142;11.516;2023-05-20T13:59:14;23.40;99.90
1806;DHT22;901;48.142;11.516;2023-05-20T14:01:41;23.30;99.90
1806;DHT22;901;48.142;11.516;2023-05-20T14:04:10;23.20;99.90
1806;DHT22;901;48.142;11.516;2023-05-20T14:06:37;23.30;99.90
1806;DHT22;901;48.142;11.516;2023-05-20T14:09:06;23.40;99.90
1806;DHT22;901;48.142;11.516;2023-05-20T14:11:34;23.50;99.90
1806;DHT22;901;48.142;11.516;2023-05-20T14:14:01;23.40;99.90
1806;DHT22;901;48.142;11.516;2023-05-20T14:16:27;23.40;99.90
1806;DHT22;901;48.142;11.516;2023-05-20T14:18:54;23.50;99.90
1806;DHT22;901;48.142;11.516;2023-05-20T14:21:21;23.50;99.90
1806;DHT22;901;48.142;11.516;2023-05-20T14:23:48;23.50;99.90
1806;DHT22;901;48.142;11.516;2023-05-20T14:26:16;23.60;99.90
1806;DHT22;901;48.142;11.516;2023-05-20T14:28:43;24.10;99.90
1806;DHT22;901;48.142;11.516;2023-05-20T14:31:09;23.70;99.90
1806;DHT22;901;48.142;11.516;2023-05-20T14:33:36;23.60;99.90
1806;DHT22;901;48.142;11.516;2023-05-20T14:36:03;23.50;99.90
1806;DHT22;901;48.142;11.516;2023-05-20T14:38:30;23.30;99.90
1806;DHT22;901;48.142;11.516;2023-05-20T14:40:57;23.30;99.90
1806;DHT22;901;48.142;11.516;2023-05-20T14:43:25;23.10;99.90
1806;DHT22;901;48.142;11.516;2023-05-20T14:45:52;23.10;99.90
1806;DHT22;901;48.142;11.516;2023-05-20T14:48:19;23.20;99.90
1806;DHT22;901;48.142;11.516;2023-05-20T14:50:46;23.10;99.90
1806;DHT22;901;48.142;11.516;2023-05-20T14:53:12;22.90;99.90
1806;DHT22;901;48.142;11.516;2023-05-20T14:55:39;23.00;99.90
1806;DHT22;901;48.142;11.516;2023-05-20T14:58:06;23.00;99.90
1806;DHT22;901;48.142;11.516;2023-05-20T15:00:35;23.00;99.90
1806;DHT22;901;48.142;11.516;2023-05-20T15:03:02;23.00;99.90
1806;DHT22;901;48.142;11.516;2023-05-20T15:05:28;22.80;99.90
1806;DHT22;901;48.142;11.516;2023-05-20T15:07:55;22.70;99.90
1806;DHT22;901;48.142;11.516;2023-05-20T15:10:22;22.80;99.90
1806;DHT22;901;48.142;11.516;2023-05-20T15:12:49;22.70;99.90
1806;DHT22;901;48.142;11.516;2023-05-20T15:15:19;22.70;99.90
1806;DHT22;901;48.142;11.516;2023-05-20T15:17:47;22.60;99.90
1806;DHT22;901;48.142;11.516;2023-05-20T15:20:14;22.60;99.90
1806;DHT22;901;48.142;11.516;2023-05-20T15:22:41;22.60;99.90
1806;DHT22;901;48.142;11.516;2023-05-20T15:25:10;22.50;99.90
1806;DHT22;901;48.142;11.516;2023-05-20T15:27:37;22.60;99.90
1806;DHT22;901;48.142;11.516;2023-05-20T15:30:04;22.70;99.90
1806;DHT22;901;48.142;11.516;2023-05-20T15:32:31;22.80;99.90
1806;DHT22;901;48.142;11.516;2023-05-20T15:35:00;22.80;99.90
1806;DHT22;901;48.142;11.516;2023-05-20T15:37:27;22.70;99.90
1806;DHT22;901;48.142;11.516;2023-05-20T15:39:54;22.80;99.90
1806;DHT22;901;48.142;11.516;2023-05-20T15:42:20;22.80;99.90
1806;DHT22;901;48.142;11.516;2023-05-20T15:44:47;22.90;99.90
1806;DHT22;901;48.142;11.516;2023-05-20T15:47:14;23.00;99.90
1806;DHT22;901;48.142;11.516;2023-05-20T15:49:41;23.00;99.90
1806;DHT22;901;48.142;11.516;2023-05-20T15:52:09;23.20;99.90
1806;DHT22;901;48.142;11.516;2023-05-20T15:54:36;23.20;99.90
1806;DHT22;901;48.142;11.516;2023-05-20T15:57:03;23.20;99.90
1806;DHT22;901;48.142;11.516;2023-05-20T15:59:30;23.30;99.90
1806;DHT22;901;48.142;11.516;2023-05-20T16:01:57;23.20;99.90
1806;DHT22;901;48.142;11.516;2023-05-20T16:04:24;23.20;99.90